createdAt,value
2018-08-30T00:01:16.397Z,15.81
2018-08-30T00:03:45.544Z,15.77
2018-08-30T00:06:14.706Z,15.75
2018-08-30T00:08:43.851Z,15.76
2018-08-30T00:11:13.229Z,15.73
2018-08-30T00:13:42.367Z,15.71
2018-08-30T00:16:11.559Z,15.69
2018-08-30T00:18:40.682Z,15.65
2018-08-30T00:21:09.812Z,15.58
2018-08-30T00:23:39.021Z,15.54
2018-08-30T00:26:08.210Z,15.51
2018-08-30T00:28:37.406Z,15.48
2018-08-30T00:31:06.632Z,15.51
2018-08-30T00:33:35.870Z,15.52
2018-08-30T00:36:05.083Z,15.49
2018-08-30T00:38:34.327Z,15.54
2018-08-30T00:41:03.503Z,15.49
2018-08-30T00:43:32.623Z,15.49
2018-08-30T00:46:01.915Z,15.47
2018-08-30T00:48:31.062Z,15.44
2018-08-30T00:51:00.239Z,15.44
2018-08-30T00:53:29.376Z,15.46
2018-08-30T00:55:58.614Z,15.47
2018-08-30T00:58:27.767Z,15.46
2018-08-30T01:00:56.972Z,15.49
2018-08-30T01:03:26.132Z,15.49
2018-08-30T01:05:55.364Z,15.47
2018-08-30T01:08:24.490Z,15.46
2018-08-30T01:10:53.651Z,15.45
2018-08-30T01:13:22.861Z,15.50
2018-08-30T01:15:52.034Z,15.50
2018-08-30T01:18:21.218Z,15.51
2018-08-30T01:20:50.490Z,15.51
2018-08-30T01:23:19.671Z,15.53
2018-08-30T01:25:48.904Z,15.51
2018-08-30T01:28:18.092Z,15.55
2018-08-30T01:30:47.279Z,15.56
2018-08-30T01:33:16.438Z,15.55
2018-08-30T01:35:45.572Z,15.56
2018-08-30T01:38:14.724Z,15.56
2018-08-30T01:40:43.872Z,15.51
2018-08-30T01:43:13.052Z,15.54
2018-08-30T01:45:42.255Z,15.54
2018-08-30T01:48:11.444Z,15.52
2018-08-30T01:50:40.599Z,15.53
2018-08-30T01:53:09.748Z,15.54
2018-08-30T01:55:40.371Z,15.53
2018-08-30T01:58:09.571Z,15.52
2018-08-30T02:00:38.934Z,15.56
2018-08-30T02:03:08.087Z,15.53
2018-08-30T02:05:37.259Z,15.52
2018-08-30T02:08:06.472Z,15.52
2018-08-30T02:10:35.651Z,15.51
2018-08-30T02:13:04.904Z,15.51
2018-08-30T02:15:34.166Z,15.50
2018-08-30T02:18:03.412Z,15.50
2018-08-30T02:20:32.563Z,15.50
2018-08-30T02:23:01.792Z,15.49
2018-08-30T02:25:31.036Z,15.50
2018-08-30T02:28:00.331Z,15.51
2018-08-30T02:30:29.466Z,15.52
2018-08-30T02:32:58.692Z,15.57
2018-08-30T02:35:27.839Z,15.57
2018-08-30T02:37:57.056Z,15.60
2018-08-30T02:40:26.215Z,15.62
2018-08-30T02:42:55.388Z,15.61
2018-08-30T02:45:24.649Z,15.60
2018-08-30T02:47:53.894Z,15.67
2018-08-30T02:50:23.082Z,15.61
2018-08-30T02:52:52.202Z,15.63
2018-08-30T02:55:21.402Z,15.63
2018-08-30T02:57:50.542Z,15.62
2018-08-30T03:00:19.766Z,15.65
2018-08-30T03:02:48.968Z,15.60
2018-08-30T03:05:18.145Z,15.61
2018-08-30T03:07:47.368Z,15.60
2018-08-30T03:10:16.595Z,15.60
2018-08-30T03:12:45.761Z,15.60
2018-08-30T03:15:16.079Z,15.59
2018-08-30T03:17:45.269Z,15.58
2018-08-30T03:20:15.112Z,15.57
2018-08-30T03:22:44.334Z,15.58
2018-08-30T03:25:13.542Z,15.60
2018-08-30T03:27:42.700Z,15.56
2018-08-30T03:30:12.928Z,15.55
2018-08-30T03:32:42.245Z,15.53
2018-08-30T03:35:11.359Z,15.52
2018-08-30T03:37:40.520Z,15.55
2018-08-30T03:40:09.737Z,15.58
2018-08-30T03:42:38.883Z,15.56
2018-08-30T03:45:08.064Z,15.59
2018-08-30T03:47:37.336Z,15.59
2018-08-30T03:53:03.915Z,15.56
2018-08-30T03:55:33.071Z,15.56
2018-08-30T03:58:02.260Z,15.56
2018-08-30T04:00:31.460Z,15.55
2018-08-30T04:03:00.622Z,15.56
2018-08-30T04:05:29.839Z,15.56
2018-08-30T04:07:58.994Z,15.54
2018-08-30T04:10:28.151Z,15.53
2018-08-30T04:12:57.343Z,15.53
2018-08-30T04:15:26.567Z,15.51
2018-08-30T04:17:55.726Z,15.51
2018-08-30T04:20:24.999Z,15.51
2018-08-30T04:22:54.364Z,15.51
2018-08-30T04:25:23.529Z,15.49
2018-08-30T04:27:52.815Z,15.50
2018-08-30T04:30:22.948Z,15.51
2018-08-30T04:32:52.131Z,15.47
2018-08-30T04:35:21.379Z,15.47
2018-08-30T04:37:50.572Z,15.49
2018-08-30T04:40:19.717Z,15.51
2018-08-30T04:42:49.055Z,15.48
2018-08-30T04:45:19.968Z,15.47
2018-08-30T04:47:49.099Z,15.48
2018-08-30T04:50:18.515Z,15.43
2018-08-30T04:52:47.634Z,15.46
2018-08-30T04:55:16.822Z,15.48
2018-08-30T04:57:46.012Z,15.48
2018-08-30T05:00:15.762Z,15.48
2018-08-30T05:02:45.061Z,15.48
2018-08-30T05:05:14.301Z,15.48
2018-08-30T05:07:44.144Z,15.50
2018-08-30T05:10:13.395Z,15.54
2018-08-30T05:12:42.652Z,15.50
2018-08-30T05:15:12.814Z,15.49
2018-08-30T05:17:42.127Z,15.51
2018-08-30T05:20:11.352Z,15.54
2018-08-30T05:22:40.597Z,15.52
2018-08-30T05:25:09.749Z,15.59
2018-08-30T05:27:39.049Z,15.60
2018-08-30T05:30:09.145Z,15.59
2018-08-30T05:32:38.381Z,15.60
2018-08-30T05:35:07.580Z,15.62
2018-08-30T05:37:36.754Z,15.61
2018-08-30T05:40:05.963Z,15.62
2018-08-30T05:42:35.220Z,15.67
2018-08-30T05:45:04.566Z,15.67
2018-08-30T05:47:33.756Z,15.72
2018-08-30T05:50:03.008Z,15.73
2018-08-30T05:52:32.493Z,15.74
2018-08-30T05:55:02.110Z,15.77
2018-08-30T05:57:31.383Z,15.79
2018-08-30T06:00:00.983Z,15.85
2018-08-30T06:02:30.644Z,15.89
2018-08-30T06:05:00.225Z,15.93
2018-08-30T06:07:29.745Z,15.95
2018-08-30T06:09:58.915Z,15.97
2018-08-30T06:12:28.080Z,16.02
2018-08-30T06:14:57.694Z,16.03
2018-08-30T06:17:26.895Z,16.05
2018-08-30T06:19:56.133Z,16.08
2018-08-30T06:22:25.343Z,16.15
2018-08-30T06:24:54.452Z,16.15
2018-08-30T06:27:23.626Z,16.11
2018-08-30T06:29:52.803Z,16.12
2018-08-30T06:32:25.361Z,16.17
2018-08-30T06:34:54.604Z,16.27
2018-08-30T06:37:23.813Z,16.29
2018-08-30T06:39:52.951Z,16.35
2018-08-30T06:42:22.223Z,16.39
2018-08-30T06:44:51.404Z,16.43
2018-08-30T06:47:20.548Z,16.41
2018-08-30T06:49:49.691Z,16.39
2018-08-30T06:52:18.887Z,16.38
2018-08-30T06:54:48.032Z,16.39
2018-08-30T06:57:17.196Z,16.41
2018-08-30T06:59:46.444Z,16.49
2018-08-30T07:02:15.710Z,16.94
2018-08-30T07:04:45.298Z,16.98
2018-08-30T07:07:14.469Z,16.92
2018-08-30T07:09:43.822Z,16.82
2018-08-30T07:12:13.009Z,16.85
2018-08-30T07:14:42.205Z,17.16
2018-08-30T07:17:11.402Z,17.39
2018-08-30T07:19:40.640Z,17.19
2018-08-30T07:22:09.904Z,17.21
2018-08-30T07:24:39.038Z,17.39
2018-08-30T07:27:08.178Z,17.68
2018-08-30T07:29:37.388Z,17.94
2018-08-30T07:32:07.120Z,18.28
2018-08-30T07:34:36.422Z,18.60
2018-08-30T07:37:05.578Z,18.80
2018-08-30T07:39:34.848Z,18.92
2018-08-30T07:42:04.135Z,19.01
2018-08-30T07:44:33.345Z,18.83
2018-08-30T07:47:02.500Z,19.05
2018-08-30T07:49:31.707Z,18.84
2018-08-30T07:52:00.863Z,18.68
2018-08-30T07:54:30.159Z,18.84
2018-08-30T07:56:59.256Z,18.61
2018-08-30T07:59:28.499Z,19.00
2018-08-30T08:01:57.699Z,19.44
2018-08-30T08:04:26.899Z,20.02
2018-08-30T08:06:56.068Z,20.16
2018-08-30T08:09:25.285Z,20.41
2018-08-30T08:11:54.546Z,20.98
2018-08-30T08:14:23.706Z,21.28
2018-08-30T08:16:52.864Z,21.96
2018-08-30T08:19:22.039Z,22.29
2018-08-30T08:21:51.274Z,22.39
2018-08-30T08:24:20.400Z,22.52
2018-08-30T08:26:49.664Z,22.43
2018-08-30T08:29:18.772Z,22.12
2018-08-30T08:31:47.895Z,22.10
2018-08-30T08:34:17.231Z,21.68
2018-08-30T08:36:46.546Z,21.35
2018-08-30T08:39:15.706Z,21.60
2018-08-30T08:41:44.911Z,21.23
2018-08-30T08:44:14.073Z,21.75
2018-08-30T08:46:43.340Z,22.41
2018-08-30T08:49:12.537Z,22.74
2018-08-30T08:51:41.832Z,23.13
2018-08-30T08:54:10.971Z,23.36
2018-08-30T08:56:40.128Z,23.56
2018-08-30T08:59:09.365Z,23.49
2018-08-30T09:01:38.460Z,23.36
2018-08-30T09:04:07.687Z,23.16
2018-08-30T09:06:36.852Z,23.13
2018-08-30T09:09:09.151Z,23.21
2018-08-30T09:11:38.292Z,22.58
2018-08-30T09:14:07.724Z,22.84
2018-08-30T09:16:36.939Z,22.32
2018-08-30T09:19:06.720Z,22.05
2018-08-30T09:21:35.921Z,21.63
2018-08-30T09:24:05.164Z,21.28
2018-08-30T09:26:34.283Z,20.94
2018-08-30T09:29:03.471Z,21.56
2018-08-30T09:31:32.613Z,22.43
2018-08-30T09:34:01.869Z,23.13
2018-08-30T09:36:31.148Z,23.72
2018-08-30T09:39:00.370Z,23.97
2018-08-30T09:41:29.964Z,24.43
2018-08-30T09:43:59.214Z,24.35
2018-08-30T09:46:28.348Z,24.74
2018-08-30T09:48:57.483Z,24.56
2018-08-30T09:51:26.659Z,24.33
2018-08-30T09:53:55.831Z,24.36
2018-08-30T09:56:25.057Z,24.70
2018-08-30T09:58:54.218Z,25.15
2018-08-30T10:01:28.413Z,24.59
2018-08-30T10:03:57.556Z,23.83
2018-08-30T10:06:27.480Z,23.20
2018-08-30T10:08:56.744Z,22.87
2018-08-30T10:11:25.864Z,22.48
2018-08-30T10:13:55.013Z,22.52
2018-08-30T10:16:24.184Z,22.79
2018-08-30T10:18:53.367Z,22.45
2018-08-30T10:21:22.520Z,21.92
2018-08-30T10:23:51.687Z,21.60
2018-08-30T10:26:20.905Z,21.37
2018-08-30T10:28:50.097Z,21.46
2018-08-30T10:31:19.335Z,21.95
2018-08-30T10:33:48.429Z,22.19
2018-08-30T10:36:17.794Z,22.18
2018-08-30T10:38:46.976Z,22.19
2018-08-30T10:41:16.495Z,22.25
2018-08-30T10:43:45.649Z,23.52
2018-08-30T10:46:14.919Z,24.13
2018-08-30T10:48:44.056Z,24.63
2018-08-30T10:51:13.304Z,24.70
2018-08-30T10:53:42.489Z,24.71
2018-08-30T10:56:11.787Z,24.19
2018-08-30T10:58:40.988Z,23.43
2018-08-30T11:01:10.245Z,23.00
2018-08-30T11:03:39.378Z,23.84
2018-08-30T11:06:08.558Z,24.34
2018-08-30T11:08:37.713Z,25.25
2018-08-30T11:11:07.000Z,25.86
2018-08-30T11:13:36.505Z,26.25
2018-08-30T11:16:05.748Z,26.61
2018-08-30T11:18:35.821Z,26.29
2018-08-30T11:21:05.059Z,26.08
2018-08-30T11:23:34.215Z,25.89
2018-08-30T11:26:03.329Z,26.51
2018-08-30T11:28:32.508Z,26.88
2018-08-30T11:31:01.760Z,26.34
2018-08-30T11:33:30.920Z,26.27
2018-08-30T11:36:00.136Z,26.83
2018-08-30T11:38:29.479Z,27.27
2018-08-30T11:40:58.628Z,27.82
2018-08-30T11:43:27.868Z,27.01
2018-08-30T11:45:56.921Z,26.43
2018-08-30T11:48:26.051Z,26.76
2018-08-30T11:50:55.441Z,25.88
2018-08-30T11:53:24.566Z,24.98
2018-08-30T11:55:53.834Z,25.42
2018-08-30T11:58:23.115Z,25.59
2018-08-30T12:00:52.350Z,26.27
2018-08-30T12:03:22.624Z,26.37
2018-08-30T12:05:52.649Z,26.25
2018-08-30T12:08:21.843Z,25.95
2018-08-30T12:10:51.011Z,25.91
2018-08-30T12:13:20.060Z,25.36
2018-08-30T12:15:49.196Z,24.24
2018-08-30T12:18:18.348Z,23.86
2018-08-30T12:20:47.628Z,23.67
2018-08-30T12:23:16.659Z,24.06
2018-08-30T12:25:45.797Z,24.04
2018-08-30T12:28:15.055Z,24.36
2018-08-30T12:30:44.909Z,24.67
2018-08-30T12:33:14.015Z,25.00
2018-08-30T12:35:43.259Z,25.27
2018-08-30T12:38:12.339Z,25.91
2018-08-30T12:40:41.583Z,25.97
2018-08-30T12:43:10.802Z,25.45
2018-08-30T12:45:40.118Z,24.60
2018-08-30T12:48:10.187Z,24.49
2018-08-30T12:50:39.471Z,23.87
2018-08-30T12:53:08.939Z,24.07
2018-08-30T12:55:38.211Z,24.02
2018-08-30T12:58:07.628Z,24.50
2018-08-30T13:00:37.120Z,24.61
2018-08-30T13:03:06.369Z,25.11
2018-08-30T13:05:35.700Z,25.57
2018-08-30T13:08:04.805Z,26.31
2018-08-30T13:10:34.024Z,26.33
2018-08-30T13:13:03.191Z,26.62
2018-08-30T13:15:32.503Z,27.04
2018-08-30T13:18:01.630Z,27.09
2018-08-30T13:20:30.809Z,26.83
2018-08-30T13:23:00.043Z,25.99
2018-08-30T13:25:29.260Z,25.46
2018-08-30T13:27:58.350Z,25.01
2018-08-30T13:30:27.761Z,25.13
2018-08-30T13:32:56.944Z,25.50
2018-08-30T13:35:26.273Z,25.69
2018-08-30T13:37:55.528Z,25.66
2018-08-30T13:40:24.973Z,25.11
2018-08-30T13:42:53.982Z,24.70
2018-08-30T13:45:23.782Z,25.05
2018-08-30T13:47:52.773Z,25.24
2018-08-30T13:50:21.996Z,25.60
2018-08-30T13:52:51.254Z,25.69
2018-08-30T13:55:20.411Z,25.46
2018-08-30T13:57:50.705Z,25.79
2018-08-30T14:00:19.948Z,25.76
2018-08-30T14:02:48.782Z,25.92
2018-08-30T14:05:18.349Z,26.01
2018-08-30T14:07:47.191Z,25.20
2018-08-30T14:10:16.626Z,25.01
2018-08-30T14:12:45.793Z,25.14
2018-08-30T14:15:15.393Z,25.04
2018-08-30T14:17:44.445Z,24.81
2018-08-30T14:20:13.705Z,25.08
2018-08-30T14:22:42.792Z,25.29
2018-08-30T14:25:12.013Z,25.39
2018-08-30T14:27:41.211Z,25.17
2018-08-30T14:30:11.162Z,25.37
2018-08-30T14:32:40.376Z,25.25
2018-08-30T14:35:09.599Z,25.12
2018-08-30T14:37:38.919Z,24.99
2018-08-30T14:40:08.124Z,24.93
2018-08-30T14:42:37.508Z,24.68
2018-08-30T14:45:07.497Z,24.44
2018-08-30T14:47:36.967Z,24.19
2018-08-30T14:50:05.963Z,23.96
2018-08-30T14:52:35.199Z,23.91
2018-08-30T14:55:04.432Z,23.68
2018-08-30T14:57:33.652Z,23.84
2018-08-30T15:00:09.783Z,23.91
2018-08-30T15:02:38.848Z,23.84
2018-08-30T15:05:08.078Z,23.87
2018-08-30T15:07:37.330Z,23.81
2018-08-30T15:10:06.860Z,23.89
2018-08-30T15:12:36.293Z,23.75
2018-08-30T15:15:05.279Z,23.55
2018-08-30T15:17:34.534Z,23.05
2018-08-30T15:20:03.739Z,22.91
2018-08-30T15:22:32.892Z,22.57
2018-08-30T15:25:02.159Z,22.35
2018-08-30T15:27:31.340Z,22.25
2018-08-30T15:30:00.587Z,22.18
2018-08-30T15:32:29.683Z,21.95
2018-08-30T15:34:58.881Z,21.86
2018-08-30T15:37:28.072Z,21.78
2018-08-30T15:39:57.268Z,21.86
2018-08-30T15:42:26.535Z,21.93
2018-08-30T15:44:55.666Z,21.94
2018-08-30T15:47:24.988Z,22.06
2018-08-30T15:49:54.112Z,22.06
2018-08-30T15:52:23.316Z,21.96
2018-08-30T15:54:52.472Z,21.94
2018-08-30T15:57:21.635Z,21.75
2018-08-30T15:59:50.886Z,21.71
2018-08-30T16:02:20.077Z,21.65
2018-08-30T16:04:49.197Z,21.53
2018-08-30T16:07:18.388Z,21.42
2018-08-30T16:09:47.494Z,21.53
2018-08-30T16:12:16.676Z,21.60
2018-08-30T16:14:45.952Z,21.52
2018-08-30T16:17:15.145Z,21.45
2018-08-30T16:19:44.285Z,21.29
2018-08-30T16:22:13.512Z,21.16
2018-08-30T16:24:42.873Z,21.07
2018-08-30T16:27:11.945Z,21.01
2018-08-30T16:29:41.112Z,20.91
2018-08-30T16:32:10.279Z,20.93
2018-08-30T16:34:39.420Z,20.94
2018-08-30T16:37:08.858Z,21.03
2018-08-30T16:39:37.980Z,21.02
2018-08-30T16:42:07.225Z,20.98
2018-08-30T16:44:36.633Z,21.00
2018-08-30T16:47:05.808Z,20.93
2018-08-30T16:49:34.957Z,20.94
2018-08-30T16:52:04.161Z,20.97
2018-08-30T16:54:33.398Z,20.91
2018-08-30T16:57:02.554Z,20.98
2018-08-30T16:59:31.758Z,20.92
2018-08-30T17:02:01.037Z,20.94
2018-08-30T17:04:30.288Z,20.98
2018-08-30T17:06:59.441Z,20.83
2018-08-30T17:09:28.733Z,20.84
2018-08-30T17:11:58.222Z,20.83
2018-08-30T17:14:27.772Z,20.74
2018-08-30T17:16:57.358Z,20.76
2018-08-30T17:19:31.372Z,20.70
2018-08-30T17:22:00.532Z,20.64
2018-08-30T17:24:29.692Z,20.52
2018-08-30T17:26:58.899Z,20.49
2018-08-30T17:29:28.198Z,20.43
2018-08-30T17:31:57.327Z,20.43
2018-08-30T17:34:26.696Z,20.33
2018-08-30T17:36:55.898Z,20.34
2018-08-30T17:39:25.080Z,20.34
2018-08-30T17:41:54.289Z,20.20
2018-08-30T17:44:26.432Z,20.21
2018-08-30T17:46:55.724Z,20.17
2018-08-30T17:49:25.232Z,20.04
2018-08-30T17:51:55.085Z,19.98
2018-08-30T17:54:24.602Z,19.96
2018-08-30T17:56:53.775Z,19.90
2018-08-30T17:59:23.179Z,19.77
2018-08-30T18:01:52.320Z,19.74
2018-08-30T18:04:21.526Z,19.62
2018-08-30T18:06:50.991Z,19.53
2018-08-30T18:09:20.218Z,19.46
2018-08-30T18:11:49.367Z,19.37
2018-08-30T18:14:18.481Z,19.25
2018-08-30T18:16:47.785Z,19.18
2018-08-30T18:19:16.985Z,19.11
2018-08-30T18:21:46.330Z,19.03
2018-08-30T18:24:15.839Z,18.93
2018-08-30T18:26:45.093Z,18.83
2018-08-30T18:29:14.387Z,18.76
2018-08-30T18:31:43.691Z,18.70
2018-08-30T18:34:12.975Z,18.69
2018-08-30T18:36:42.213Z,18.64
2018-08-30T18:39:11.762Z,18.54
2018-08-30T18:41:41.164Z,18.42
2018-08-30T18:44:10.393Z,18.33
2018-08-30T18:46:39.607Z,18.27
2018-08-30T18:49:09.133Z,18.17
2018-08-30T18:51:38.416Z,18.05
2018-08-30T18:54:07.638Z,17.95
2018-08-30T18:56:36.853Z,17.90
2018-08-30T18:59:06.563Z,17.84
2018-08-30T19:01:35.932Z,17.73
2018-08-30T19:04:05.249Z,17.65
2018-08-30T19:06:34.651Z,17.61
2018-08-30T19:09:04.849Z,17.55
2018-08-30T19:11:34.109Z,17.52
2018-08-30T19:14:03.549Z,17.49
2018-08-30T19:16:37.947Z,17.42
2018-08-30T19:19:11.593Z,17.39
2018-08-30T19:21:40.912Z,17.32
2018-08-30T19:24:14.583Z,17.26
2018-08-30T19:26:43.812Z,17.20
2018-08-30T19:29:13.149Z,17.15
2018-08-30T19:31:42.613Z,17.09
2018-08-30T19:34:11.934Z,17.08
2018-08-30T19:36:41.033Z,17.04
2018-08-30T19:39:11.761Z,17.06
2018-08-30T19:41:40.987Z,17.03
2018-08-30T19:44:11.052Z,16.96
2018-08-30T19:46:40.301Z,16.95
2018-08-30T19:49:10.342Z,16.98
2018-08-30T19:51:40.215Z,16.87
2018-08-30T19:54:09.449Z,16.85
2018-08-30T19:56:38.627Z,16.74
2018-08-30T19:59:07.879Z,16.71
2018-08-30T20:01:37.330Z,16.66
2018-08-30T20:04:06.543Z,16.55
2018-08-30T20:06:35.706Z,16.53
2018-08-30T20:09:06.179Z,16.54
2018-08-30T20:11:35.612Z,16.48
2018-08-30T20:14:04.929Z,16.51
2018-08-30T20:16:34.160Z,16.46
2018-08-30T20:19:03.311Z,16.38
2018-08-30T20:21:32.650Z,16.39
2018-08-30T20:24:01.867Z,16.38
2018-08-30T20:26:31.035Z,16.36
2018-08-30T20:29:00.239Z,16.31
2018-08-30T20:31:30.456Z,16.20
2018-08-30T20:33:59.644Z,16.25
2018-08-30T20:36:28.825Z,16.15
2018-08-30T20:38:58.054Z,16.12
2018-08-30T20:41:27.312Z,16.11
2018-08-30T20:43:56.529Z,16.12
2018-08-30T20:46:25.700Z,16.02
2018-08-30T20:48:54.877Z,16.04
2018-08-30T20:51:24.046Z,16.03
2018-08-30T20:53:53.225Z,15.99
2018-08-30T20:56:22.497Z,15.97
2018-08-30T20:58:51.672Z,15.94
2018-08-30T21:01:20.902Z,15.87
2018-08-30T21:03:50.181Z,15.81
2018-08-30T21:06:19.487Z,15.78
2018-08-30T21:08:48.755Z,15.75
2018-08-30T21:11:18.060Z,15.69
2018-08-30T21:13:47.221Z,15.66
2018-08-30T21:16:16.481Z,15.67
2018-08-30T21:18:45.763Z,15.65
2018-08-30T21:21:20.911Z,15.59
2018-08-30T21:23:51.436Z,15.54
2018-08-30T21:26:20.675Z,15.49
2018-08-30T21:28:49.815Z,15.43
2018-08-30T21:31:20.016Z,15.40
2018-08-30T21:33:49.163Z,15.39
2018-08-30T21:36:18.428Z,15.38
2018-08-30T21:38:47.616Z,15.37
2018-08-30T21:41:16.820Z,15.42
2018-08-30T21:43:45.987Z,15.35
2018-08-30T21:46:15.283Z,15.36
2018-08-30T21:48:44.420Z,15.33
2018-08-30T21:51:13.608Z,15.27
2018-08-30T21:53:42.840Z,15.28
2018-08-30T21:56:12.044Z,15.23
2018-08-30T21:58:41.164Z,15.16
2018-08-30T22:01:10.440Z,15.14
2018-08-30T22:03:39.631Z,15.14
2018-08-30T22:06:08.873Z,15.10
2018-08-30T22:08:38.021Z,15.07
2018-08-30T22:11:07.145Z,15.01
2018-08-30T22:13:36.360Z,14.97
2018-08-30T22:16:05.641Z,14.93
2018-08-30T22:18:34.811Z,14.89
2018-08-30T22:21:04.103Z,14.87
2018-08-30T22:23:33.504Z,14.84
2018-08-30T22:26:02.720Z,14.83
2018-08-30T22:28:31.965Z,14.80
2018-08-30T22:31:01.303Z,14.82
2018-08-30T22:33:30.585Z,14.83
2018-08-30T22:36:00.367Z,14.82
2018-08-30T22:38:29.535Z,14.76
2018-08-30T22:40:58.685Z,14.71
2018-08-30T22:43:27.931Z,14.70
2018-08-30T22:45:57.175Z,14.72
2018-08-30T22:48:26.325Z,14.68
2018-08-30T22:50:55.505Z,14.69
2018-08-30T22:53:24.672Z,14.71
2018-08-30T22:55:53.930Z,14.70
2018-08-30T22:58:23.408Z,14.70
2018-08-30T23:00:52.564Z,14.64
2018-08-30T23:03:21.742Z,14.59
2018-08-30T23:05:51.353Z,14.53
2018-08-30T23:08:20.525Z,14.47
2018-08-30T23:10:49.686Z,14.47
2018-08-30T23:13:18.957Z,14.42
2018-08-30T23:15:48.122Z,14.43
2018-08-30T23:18:17.343Z,14.37
2018-08-30T23:20:46.625Z,14.40
2018-08-30T23:23:15.752Z,14.38
2018-08-30T23:25:44.942Z,14.39
2018-08-30T23:28:14.076Z,14.42
2018-08-30T23:30:43.269Z,14.40
2018-08-30T23:33:12.833Z,14.40
2018-08-30T23:35:42.015Z,14.35
2018-08-30T23:38:11.232Z,14.39
2018-08-30T23:40:40.354Z,14.38
2018-08-30T23:43:09.541Z,14.37
2018-08-30T23:45:38.725Z,14.36
2018-08-30T23:48:07.949Z,14.31
2018-08-30T23:50:37.108Z,14.27
2018-08-30T23:53:07.005Z,14.30
2018-08-30T23:55:36.143Z,14.27
2018-08-30T23:58:22.369Z,14.28
